Time;durP1;ratioP1;P1;durP2;ratioP2;P2;SDS_P1;SDS_P2;PMS_P1;PMS_P2;Temp;Humidity;BMP_temperature;BMP_pressure;BME280_temperature;BME280_humidity;BME280_pressure;Samples;Min_cycle;Max_cycle;Signal;HPM_P1;HPM_P2
2022/01/15 00:00:24;;;;;;;;;;;0.30;99.90;;;;;;5050666;28;19913;-79
2022/01/15 00:02:50;;;;;;;;;;;0.30;99.90;;;;;;5043658;28;19983;-79
2022/01/15 00:05:15;;;;;;;;;;;0.30;99.90;;;;;;5036631;28;19917;-79
2022/01/15 00:07:42;;;;;;;;;;;0.30;99.90;;;;;;5056283;28;19920;-79
2022/01/15 00:10:08;;;;;;;;;;;0.30;99.90;;;;;;5057375;28;19917;-79
2022/01/15 00:12:40;;;;;;;;;;;0.30;99.90;;;;;;5044408;28;19916;-79
2022/01/15 00:15:08;;;;;;;;;;;0.30;99.90;;;;;;5056913;28;19967;-79
2022/01/15 00:17:56;;;;;;;;;;;0.30;99.90;;;;;;5033716;28;20012;-79
2022/01/15 00:20:23;;;;;;;;;;;0.30;99.90;;;;;;5054997;28;20367;-79
2022/01/15 00:22:50;;;;;;;;;;;0.30;99.90;;;;;;5040294;28;19924;-78
2022/01/15 00:25:16;;;;;;;;;;;0.40;99.90;;;;;;5047352;28;19913;-78
2022/01/15 00:27:42;;;;;;;;;;;0.40;99.90;;;;;;5059298;28;19983;-79
2022/01/15 00:30:08;;;;;;;;;;;0.40;99.90;;;;;;5056567;28;19963;-79
2022/01/15 00:32:34;;;;;;;;;;;0.40;99.90;;;;;;5029004;28;19917;-79
2022/01/15 00:35:00;;;;;;;;;;;0.40;99.90;;;;;;5054155;28;19913;-78
2022/01/15 00:37:30;;;;;;;;;;;0.30;99.90;;;;;;5035583;28;19912;-79
2022/01/15 00:39:57;;;;;;;;;;;0.30;99.90;;;;;;5050415;28;19923;-79
2022/01/15 00:42:22;;;;;;;;;;;0.30;99.90;;;;;;5034005;28;20011;-79
2022/01/15 00:44:50;;;;;;;;;;;0.30;99.90;;;;;;5052655;28;19963;-79
2022/01/15 00:47:16;;;;;;;;;;;0.30;99.90;;;;;;5035478;28;19921;-78
2022/01/15 00:49:41;;;;;;;;;;;0.30;99.90;;;;;;5024444;28;19921;-79
2022/01/15 00:52:07;;;;;;;;;;;0.30;99.90;;;;;;5052842;28;20018;-79
2022/01/15 00:54:32;;;;;;;;;;;0.30;99.90;;;;;;5054289;28;20540;-79
2022/01/15 00:56:58;;;;;;;;;;;0.30;99.90;;;;;;5036207;28;19921;-78
2022/01/15 00:59:23;;;;;;;;;;;0.30;99.90;;;;;;5035923;28;19923;-79
2022/01/15 01:01:49;;;;;;;;;;;0.40;99.90;;;;;;5033907;28;19924;-79
2022/01/15 01:04:15;;;;;;;;;;;0.40;99.90;;;;;;5054901;28;19917;-79
2022/01/15 01:06:40;;;;;;;;;;;0.30;99.90;;;;;;5038255;28;19932;-78
2022/01/15 01:09:06;;;;;;;;;;;0.30;99.90;;;;;;5017054;28;19917;-78
2022/01/15 01:11:51;;;;;;;;;;;0.30;99.90;;;;;;5037168;28;19920;-79
2022/01/15 01:20:10;;;;;;;;;;;0.30;99.90;;;;;;5045519;28;19923;-79
2022/01/15 01:23:09;;;;;;;;;;;0.30;99.90;;;;;;5039999;28;19924;-79
2022/01/15 01:25:35;;;;;;;;;;;0.30;99.90;;;;;;5050822;28;19913;-79
2022/01/15 01:28:12;;;;;;;;;;;0.30;99.90;;;;;;5053801;28;19921;-79
2022/01/15 01:30:46;;;;;;;;;;;0.30;99.90;;;;;;5054306;28;20008;-79
2022/01/15 01:36:03;;;;;;;;;;;0.40;99.90;;;;;;5035541;28;19917;-79
2022/01/15 01:38:37;;;;;;;;;;;0.40;99.90;;;;;;5057505;28;19967;-79
2022/01/15 01:41:04;;;;;;;;;;;0.40;99.90;;;;;;5038895;28;20384;-79
2022/01/15 01:48:40;;;;;;;;;;;0.40;99.90;;;;;;5068396;28;19921;-79
2022/01/15 01:51:07;;;;;;;;;;;0.40;99.90;;;;;;5036775;28;19913;-79
2022/01/15 01:53:33;;;;;;;;;;;0.40;99.90;;;;;;5053819;28;19921;-78
2022/01/15 01:55:59;;;;;;;;;;;0.40;99.90;;;;;;5052740;28;19917;-79
2022/01/15 01:58:24;;;;;;;;;;;0.40;99.90;;;;;;5022579;28;19922;-81
2022/01/15 02:00:50;;;;;;;;;;;0.40;99.90;;;;;;5051390;28;19944;-79
2022/01/15 02:03:15;;;;;;;;;;;0.40;99.90;;;;;;5035196;28;20410;-79
2022/01/15 02:05:41;;;;;;;;;;;0.40;99.90;;;;;;5036276;28;19917;-79
2022/01/15 02:08:07;;;;;;;;;;;0.50;99.90;;;;;;5057923;28;19924;-79
2022/01/15 02:10:33;;;;;;;;;;;0.50;99.90;;;;;;5056922;28;19917;-79
2022/01/15 02:13:00;;;;;;;;;;;0.50;99.90;;;;;;5051707;28;19917;-79
2022/01/15 02:15:27;;;;;;;;;;;0.50;99.90;;;;;;5020080;28;19924;-79
2022/01/15 02:17:53;;;;;;;;;;;0.50;99.90;;;;;;5054025;28;19913;-78
2022/01/15 02:20:34;;;;;;;;;;;0.50;99.90;;;;;;5043411;28;20395;-78
2022/01/15 02:25:47;;;;;;;;;;;0.50;99.90;;;;;;5041217;28;20289;-79
2022/01/15 02:28:13;;;;;;;;;;;0.50;99.90;;;;;;5039793;28;19916;-79
2022/01/15 02:30:39;;;;;;;;;;;0.50;99.90;;;;;;5039445;28;19917;-79
2022/01/15 02:33:06;;;;;;;;;;;0.50;99.90;;;;;;5044298;28;19924;-79
2022/01/15 02:35:32;;;;;;;;;;;0.50;99.90;;;;;;5056947;28;19920;-78
2022/01/15 02:38:04;;;;;;;;;;;0.50;99.90;;;;;;5056254;28;19917;-79
2022/01/15 02:40:32;;;;;;;;;;;0.50;99.90;;;;;;5040112;28;19917;-80
2022/01/15 02:43:05;;;;;;;;;;;0.50;99.90;;;;;;5048986;28;19936;-80
2022/01/15 02:45:32;;;;;;;;;;;0.50;99.90;;;;;;5052703;28;19959;-80
2022/01/15 02:48:02;;;;;;;;;;;0.50;99.90;;;;;;5044805;28;19917;-79
2022/01/15 02:50:28;;;;;;;;;;;0.50;99.90;;;;;;5051316;28;19974;-80
2022/01/15 02:52:54;;;;;;;;;;;0.50;99.90;;;;;;5053045;28;19936;-80
2022/01/15 02:55:19;;;;;;;;;;;0.50;99.90;;;;;;5026614;28;19916;-80
2022/01/15 02:57:45;;;;;;;;;;;0.50;99.90;;;;;;5033780;28;19966;-80
2022/01/15 03:00:11;;;;;;;;;;;0.50;99.90;;;;;;5031178;28;20288;-80
2022/01/15 03:02:36;;;;;;;;;;;0.50;99.90;;;;;;5032795;28;19913;-79
2022/01/15 03:05:02;;;;;;;;;;;0.50;99.90;;;;;;5032904;28;19987;-80
2022/01/15 03:07:28;;;;;;;;;;;0.50;99.90;;;;;;5015783;28;20338;-80
2022/01/15 03:09:53;;;;;;;;;;;0.60;99.90;;;;;;5034155;28;20011;-80
2022/01/15 03:12:19;;;;;;;;;;;0.60;99.90;;;;;;5051188;28;19913;-80
2022/01/15 03:14:47;;;;;;;;;;;0.60;99.90;;;;;;5051855;28;19925;-80
2022/01/15 03:17:13;;;;;;;;;;;0.60;99.90;;;;;;5032019;28;19922;-80
2022/01/15 03:19:38;;;;;;;;;;;0.70;99.90;;;;;;5030746;28;20581;-79
2022/01/15 03:22:04;;;;;;;;;;;0.60;99.90;;;;;;5032434;28;19927;-80
2022/01/15 03:24:30;;;;;;;;;;;0.50;99.90;;;;;;5031292;28;19917;-80
2022/01/15 03:26:55;;;;;;;;;;;0.50;99.90;;;;;;5031135;28;20402;-80
2022/01/15 03:29:21;;;;;;;;;;;0.50;99.90;;;;;;5031908;28;19923;-80
2022/01/15 03:31:46;;;;;;;;;;;0.50;99.90;;;;;;5031965;28;19925;-80
2022/01/15 03:34:12;;;;;;;;;;;0.50;99.90;;;;;;5029926;28;20374;-80
2022/01/15 03:36:37;;;;;;;;;;;0.40;99.90;;;;;;5050295;28;19940;-80
2022/01/15 03:39:03;;;;;;;;;;;0.40;99.90;;;;;;5049720;28;20007;-80
2022/01/15 03:41:29;;;;;;;;;;;0.40;99.90;;;;;;5050889;28;19921;-80
2022/01/15 03:43:54;;;;;;;;;;;0.50;99.90;;;;;;5033942;28;19923;-80
2022/01/15 03:46:20;;;;;;;;;;;0.50;99.90;;;;;;5050171;28;19920;-80
2022/01/15 03:48:47;;;;;;;;;;;0.40;99.90;;;;;;5050150;28;20486;-80
2022/01/15 03:51:13;;;;;;;;;;;0.50;99.90;;;;;;5052118;28;19923;-80
2022/01/15 03:53:39;;;;;;;;;;;0.50;99.90;;;;;;5038830;28;20282;-80
2022/01/15 03:56:04;;;;;;;;;;;0.50;99.90;;;;;;5030119;28;19917;-79
2022/01/15 03:58:30;;;;;;;;;;;0.50;99.90;;;;;;5037629;28;19917;-80
2022/01/15 04:00:56;;;;;;;;;;;0.50;99.90;;;;;;5050465;28;19913;-80
2022/01/15 04:03:21;;;;;;;;;;;0.50;99.90;;;;;;5050457;28;19917;-80
2022/01/15 04:05:47;;;;;;;;;;;0.50;99.90;;;;;;5050411;28;19921;-79
2022/01/15 04:08:12;;;;;;;;;;;0.50;99.90;;;;;;5031836;28;19913;-79
2022/01/15 04:10:38;;;;;;;;;;;0.50;99.90;;;;;;5029959;28;19925;-80
2022/01/15 04:13:04;;;;;;;;;;;0.50;99.90;;;;;;5031773;28;19975;-80
2022/01/15 04:15:29;;;;;;;;;;;0.50;99.90;;;;;;5031253;28;19924;-80
2022/01/15 04:17:55;;;;;;;;;;;0.50;99.90;;;;;;5059858;28;19974;-80
2022/01/15 04:20:22;;;;;;;;;;;0.50;99.90;;;;;;5051045;28;19920;-79
2022/01/15 04:22:49;;;;;;;;;;;0.40;99.90;;;;;;5051359;28;19963;-80
2022/01/15 04:25:15;;;;;;;;;;;0.40;99.90;;;;;;5049843;28;20291;-80
2022/01/15 04:27:42;;;;;;;;;;;0.40;99.90;;;;;;5049672;28;20018;-80
2022/01/15 04:30:08;;;;;;;;;;;0.40;99.90;;;;;;5049370;28;19931;-80
2022/01/15 04:32:34;;;;;;;;;;;0.40;99.90;;;;;;5033600;28;19917;-80
2022/01/15 04:34:59;;;;;;;;;;;0.50;99.90;;;;;;5040145;28;19921;-80
2022/01/15 04:37:34;;;;;;;;;;;0.50;99.90;;;;;;5050770;28;19966;-80
2022/01/15 04:40:00;;;;;;;;;;;0.40;99.90;;;;;;5012945;28;19917;-80
2022/01/15 04:42:26;;;;;;;;;;;0.40;99.90;;;;;;5034179;28;19987;-80
2022/01/15 04:44:51;;;;;;;;;;;0.40;99.90;;;;;;5041626;28;19995;-80
2022/01/15 04:47:17;;;;;;;;;;;0.40;99.90;;;;;;5050535;28;20011;-80
2022/01/15 04:49:43;;;;;;;;;;;0.40;99.90;;;;;;5052419;28;19966;-79
2022/01/15 04:52:08;;;;;;;;;;;0.40;99.90;;;;;;5036442;28;19921;-80
2022/01/15 04:54:35;;;;;;;;;;;0.40;99.90;;;;;;5033914;28;19936;-80
2022/01/15 04:57:00;;;;;;;;;;;0.40;99.90;;;;;;5034749;28;19917;-80
2022/01/15 04:59:26;;;;;;;;;;;0.40;99.90;;;;;;5033387;28;19925;-80
2022/01/15 05:01:52;;;;;;;;;;;0.40;99.90;;;;;;5043134;28;19966;-80
2022/01/15 05:04:17;;;;;;;;;;;0.40;99.90;;;;;;5037091;28;19917;-79
2022/01/15 05:06:43;;;;;;;;;;;0.40;99.90;;;;;;5044773;28;19917;-80
2022/01/15 05:09:08;;;;;;;;;;;0.40;99.90;;;;;;5052252;28;19921;-80
2022/01/15 05:11:54;;;;;;;;;;;0.40;99.90;;;;;;5054529;28;19917;-80
2022/01/15 05:14:20;;;;;;;;;;;0.40;99.90;;;;;;5039406;28;19917;-80
2022/01/15 05:16:46;;;;;;;;;;;0.30;99.90;;;;;;5053061;28;19912;-79
2022/01/15 05:19:11;;;;;;;;;;;0.40;99.90;;;;;;5054159;28;19917;-79
2022/01/15 05:21:37;;;;;;;;;;;0.30;99.90;;;;;;5054515;28;19978;-80
2022/01/15 05:24:03;;;;;;;;;;;0.40;99.90;;;;;;5042500;28;19917;-80
2022/01/15 05:26:29;;;;;;;;;;;0.30;99.90;;;;;;5034063;28;20158;-80
2022/01/15 05:28:56;;;;;;;;;;;0.30;99.90;;;;;;5033137;28;19917;-80
2022/01/15 05:31:22;;;;;;;;;;;0.30;99.90;;;;;;5050368;28;19923;-80
2022/01/15 05:33:48;;;;;;;;;;;0.30;99.90;;;;;;5051071;28;19913;-80
2022/01/15 05:36:13;;;;;;;;;;;0.30;99.90;;;;;;5032569;28;20012;-80
2022/01/15 05:38:39;;;;;;;;;;;0.30;99.90;;;;;;5032896;28;20019;-80
2022/01/15 05:41:05;;;;;;;;;;;0.30;99.90;;;;;;5032774;28;20395;-80
2022/01/15 05:43:30;;;;;;;;;;;0.30;99.90;;;;;;5046574;28;19917;-80
2022/01/15 05:45:56;;;;;;;;;;;0.30;99.90;;;;;;5045758;28;20402;-80
2022/01/15 05:48:21;;;;;;;;;;;0.40;99.90;;;;;;5037210;28;19949;-80
2022/01/15 05:50:47;;;;;;;;;;;0.40;99.90;;;;;;5035061;28;19921;-80
2022/01/15 05:53:13;;;;;;;;;;;0.30;99.90;;;;;;5053943;28;19917;-80
2022/01/15 05:55:38;;;;;;;;;;;0.30;99.90;;;;;;5042788;28;19927;-80
2022/01/15 05:58:06;;;;;;;;;;;0.30;99.90;;;;;;5034192;28;19913;-80
2022/01/15 06:00:32;;;;;;;;;;;0.30;99.90;;;;;;5039334;28;20018;-80
2022/01/15 06:02:57;;;;;;;;;;;0.30;99.90;;;;;;5052862;28;19916;-80
2022/01/15 06:05:23;;;;;;;;;;;0.30;99.90;;;;;;5032072;28;19917;-80
2022/01/15 06:07:48;;;;;;;;;;;0.30;99.90;;;;;;5039869;28;20379;-80
2022/01/15 06:10:14;;;;;;;;;;;0.30;99.90;;;;;;5053582;28;19913;-79
2022/01/15 06:12:44;;;;;;;;;;;0.40;99.90;;;;;;5051414;28;19963;-80
2022/01/15 06:15:11;;;;;;;;;;;0.40;99.90;;;;;;5032684;28;19924;-80
2022/01/15 06:17:37;;;;;;;;;;;0.30;99.90;;;;;;5033194;28;19913;-80
2022/01/15 06:20:02;;;;;;;;;;;0.40;99.90;;;;;;5042582;28;20455;-80
2022/01/15 06:22:28;;;;;;;;;;;0.40;99.90;;;;;;5053287;28;19956;-80
2022/01/15 06:24:54;;;;;;;;;;;0.30;99.90;;;;;;5052351;28;20011;-80
2022/01/15 06:27:19;;;;;;;;;;;0.40;99.90;;;;;;5051602;28;19928;-80
2022/01/15 06:29:45;;;;;;;;;;;0.30;99.90;;;;;;5052611;28;19924;-80
2022/01/15 06:32:11;;;;;;;;;;;0.30;99.90;;;;;;5052040;28;19913;-80
2022/01/15 06:34:37;;;;;;;;;;;0.30;99.90;;;;;;5052176;28;19913;-80
2022/01/15 06:37:04;;;;;;;;;;;0.30;99.90;;;;;;5051375;28;19995;-80
2022/01/15 06:39:31;;;;;;;;;;;0.40;99.90;;;;;;5035254;28;19916;-80
2022/01/15 06:41:57;;;;;;;;;;;0.40;99.90;;;;;;5052030;28;20527;-80
2022/01/15 06:44:23;;;;;;;;;;;0.40;99.90;;;;;;5035201;28;19975;-80
2022/01/15 06:46:48;;;;;;;;;;;0.40;99.90;;;;;;5034772;28;20300;-79
2022/01/15 06:49:14;;;;;;;;;;;0.40;99.90;;;;;;5034618;28;19917;-80
2022/01/15 06:51:39;;;;;;;;;;;0.30;99.90;;;;;;5034992;28;19917;-80
2022/01/15 06:54:05;;;;;;;;;;;0.30;99.90;;;;;;5042316;28;19918;-80
2022/01/15 06:56:30;;;;;;;;;;;0.30;99.90;;;;;;5045885;28;20383;-80
2022/01/15 06:58:56;;;;;;;;;;;0.40;99.90;;;;;;5050790;28;20292;-80
2022/01/15 07:01:23;;;;;;;;;;;0.30;99.90;;;;;;5048294;28;19977;-80
2022/01/15 07:03:49;;;;;;;;;;;0.40;99.90;;;;;;5053073;28;19964;-80
2022/01/15 07:06:14;;;;;;;;;;;0.40;99.90;;;;;;5066999;28;20402;-80
2022/01/15 07:08:40;;;;;;;;;;;0.40;99.90;;;;;;5050887;28;19924;-80
2022/01/15 07:11:05;;;;;;;;;;;0.40;99.90;;;;;;5032793;28;19920;-79
2022/01/15 07:13:33;;;;;;;;;;;0.40;99.90;;;;;;5039083;28;19928;-80
2022/01/15 07:15:59;;;;;;;;;;;0.50;99.90;;;;;;5050946;28;20058;-79
2022/01/15 07:18:24;;;;;;;;;;;0.40;99.90;;;;;;5047609;28;20742;-80
2022/01/15 07:20:51;;;;;;;;;;;0.40;99.90;;;;;;5032634;28;19917;-79
2022/01/15 07:23:17;;;;;;;;;;;0.40;99.90;;;;;;5047667;28;19917;-80
2022/01/15 07:25:43;;;;;;;;;;;0.40;99.90;;;;;;5032299;28;20554;-80
2022/01/15 07:28:08;;;;;;;;;;;0.40;99.90;;;;;;5031209;28;20004;-80
2022/01/15 07:30:35;;;;;;;;;;;0.40;99.90;;;;;;5032209;28;20361;-80
2022/01/15 07:33:01;;;;;;;;;;;0.40;99.90;;;;;;5026715;28;19912;-80
2022/01/15 07:35:26;;;;;;;;;;;0.40;99.90;;;;;;5050556;28;19913;-80
2022/01/15 07:37:52;;;;;;;;;;;0.50;99.90;;;;;;5068709;28;19913;-80
2022/01/15 07:40:18;;;;;;;;;;;0.50;99.90;;;;;;5017411;28;19920;-80
2022/01/15 07:42:44;;;;;;;;;;;0.50;99.90;;;;;;5051681;28;19917;-80
2022/01/15 07:45:11;;;;;;;;;;;0.60;99.90;;;;;;5035547;28;19917;-80
2022/01/15 07:47:37;;;;;;;;;;;0.50;99.90;;;;;;5031739;28;19966;-80
2022/01/15 07:50:04;;;;;;;;;;;0.60;99.90;;;;;;5047602;28;19913;-80
2022/01/15 07:52:30;;;;;;;;;;;0.50;99.90;;;;;;5048201;28;20042;-80
2022/01/15 07:54:58;;;;;;;;;;;0.50;99.90;;;;;;5049504;28;19929;-80
2022/01/15 07:57:24;;;;;;;;;;;0.60;99.90;;;;;;5047128;28;19924;-80
2022/01/15 07:59:50;;;;;;;;;;;0.60;99.90;;;;;;5046770;28;19920;-80
2022/01/15 08:02:16;;;;;;;;;;;0.60;99.90;;;;;;5024538;28;20421;-80
2022/01/15 08:04:42;;;;;;;;;;;0.70;99.90;;;;;;5050738;28;19917;-80
2022/01/15 08:07:09;;;;;;;;;;;0.70;99.90;;;;;;5052492;28;19924;-80
2022/01/15 08:09:35;;;;;;;;;;;0.70;99.90;;;;;;5041700;28;19912;-80
2022/01/15 08:12:01;;;;;;;;;;;0.70;99.90;;;;;;5070221;28;19912;-80
2022/01/15 08:14:26;;;;;;;;;;;0.70;99.90;;;;;;5054933;28;19923;-80
2022/01/15 08:16:52;;;;;;;;;;;0.70;99.90;;;;;;5051015;28;20010;-79
2022/01/15 08:19:18;;;;;;;;;;;0.70;99.90;;;;;;5040303;28;19940;-79
2022/01/15 08:21:43;;;;;;;;;;;0.80;99.90;;;;;;5039612;28;19960;-79
2022/01/15 08:24:10;;;;;;;;;;;0.90;99.90;;;;;;5032880;28;19979;-79
2022/01/15 08:26:36;;;;;;;;;;;0.80;99.90;;;;;;5049718;28;19924;-79
2022/01/15 08:29:01;;;;;;;;;;;0.80;99.90;;;;;;5051520;28;19920;-80
2022/01/15 08:31:27;;;;;;;;;;;0.80;99.90;;;;;;5050246;28;19913;-79
2022/01/15 08:33:53;;;;;;;;;;;0.90;99.90;;;;;;5050997;28;20387;-80
2022/01/15 08:36:20;;;;;;;;;;;0.90;99.90;;;;;;5035184;28;19939;-80
2022/01/15 08:38:46;;;;;;;;;;;0.90;99.90;;;;;;5035216;28;20383;-80
2022/01/15 08:41:13;;;;;;;;;;;1.00;99.90;;;;;;5051165;28;19958;-80
2022/01/15 08:43:39;;;;;;;;;;;1.00;99.90;;;;;;5051092;28;19916;-80
2022/01/15 08:46:05;;;;;;;;;;;1.10;99.90;;;;;;5052353;28;19927;-80
2022/01/15 08:48:30;;;;;;;;;;;1.10;99.90;;;;;;5045996;28;19917;-80
2022/01/15 08:50:56;;;;;;;;;;;1.10;99.90;;;;;;5049029;28;19921;-80
2022/01/15 08:53:22;;;;;;;;;;;1.20;99.90;;;;;;5043001;28;19990;-79
2022/01/15 08:55:48;;;;;;;;;;;1.30;99.90;;;;;;5049030;28;20059;-79
2022/01/15 08:58:14;;;;;;;;;;;1.30;99.90;;;;;;5052644;28;19913;-80
2022/01/15 09:00:40;;;;;;;;;;;1.30;99.90;;;;;;5049013;28;20015;-80
2022/01/15 09:03:07;;;;;;;;;;;1.30;99.90;;;;;;5049764;28;19931;-79
2022/01/15 09:05:35;;;;;;;;;;;1.30;99.90;;;;;;5034134;28;20342;-79
2022/01/15 09:08:02;;;;;;;;;;;1.40;99.90;;;;;;5050856;28;19916;-80
2022/01/15 09:10:27;;;;;;;;;;;1.40;99.90;;;;;;5055517;28;20371;-80
2022/01/15 09:12:53;;;;;;;;;;;1.40;99.90;;;;;;5052130;28;19909;-80
2022/01/15 09:15:18;;;;;;;;;;;1.40;99.90;;;;;;5051486;28;20027;-80
2022/01/15 09:17:44;;;;;;;;;;;1.50;99.90;;;;;;5048356;28;19929;-80
2022/01/15 09:20:10;;;;;;;;;;;1.50;99.90;;;;;;5043770;28;19920;-80
2022/01/15 09:22:36;;;;;;;;;;;1.50;99.90;;;;;;5049402;28;19913;-79
2022/01/15 09:25:02;;;;;;;;;;;1.60;99.90;;;;;;5049008;28;19916;-79
2022/01/15 09:30:12;;;;;;;;;;;1.70;99.90;;;;;;5043076;28;19972;-80
2022/01/15 09:32:41;;;;;;;;;;;1.80;99.90;;;;;;5050078;28;19913;-80
2022/01/15 09:35:07;;;;;;;;;;;1.80;99.90;;;;;;5048651;28;20290;-80
2022/01/15 09:37:32;;;;;;;;;;;1.80;99.90;;;;;;5030503;28;19923;-80
2022/01/15 09:39:58;;;;;;;;;;;1.80;99.90;;;;;;5040165;28;21607;-80
2022/01/15 09:42:24;;;;;;;;;;;1.90;99.90;;;;;;5046732;28;19916;-80
2022/01/15 09:44:50;;;;;;;;;;;2.00;99.90;;;;;;5049501;28;19923;-82
2022/01/15 09:47:16;;;;;;;;;;;2.00;99.90;;;;;;5038735;28;19927;-80
2022/01/15 09:49:43;;;;;;;;;;;1.90;99.90;;;;;;5046871;28;19916;-80
2022/01/15 09:52:09;;;;;;;;;;;2.00;99.90;;;;;;5042108;28;20542;-80
2022/01/15 09:54:34;;;;;;;;;;;1.90;99.90;;;;;;5049714;28;19923;-79
2022/01/15 09:57:00;;;;;;;;;;;1.90;99.90;;;;;;5052280;28;19962;-79
2022/01/15 09:59:26;;;;;;;;;;;2.00;99.90;;;;;;5058307;28;19920;-79
2022/01/15 10:01:51;;;;;;;;;;;1.90;99.90;;;;;;5042455;28;19921;-79
2022/01/15 10:04:17;;;;;;;;;;;2.00;99.90;;;;;;5043106;28;19917;-80
2022/01/15 10:07:02;;;;;;;;;;;2.00;99.90;;;;;;5044454;28;19986;-79
2022/01/15 10:09:27;;;;;;;;;;;2.00;99.90;;;;;;5050741;28;19916;-79
2022/01/15 10:11:53;;;;;;;;;;;2.10;99.90;;;;;;5052864;28;19921;-79
2022/01/15 10:14:26;;;;;;;;;;;2.10;99.90;;;;;;5045699;28;20435;-79
2022/01/15 10:16:52;;;;;;;;;;;2.10;99.90;;;;;;5026891;28;19917;-79
2022/01/15 10:19:44;;;;;;;;;;;2.10;99.90;;;;;;5046893;28;20012;-79
2022/01/15 10:22:36;;;;;;;;;;;2.10;99.90;;;;;;5048889;28;19921;-79
2022/01/15 10:25:05;;;;;;;;;;;2.00;99.90;;;;;;5037600;28;20383;-80
2022/01/15 10:27:41;;;;;;;;;;;2.00;99.90;;;;;;5050332;28;19956;-79
2022/01/15 10:30:17;;;;;;;;;;;2.00;99.90;;;;;;5049297;28;19913;-80
2022/01/15 10:32:51;;;;;;;;;;;2.00;99.90;;;;;;5031180;28;20363;-80
2022/01/15 10:35:17;;;;;;;;;;;2.00;99.90;;;;;;5027949;28;19924;-80
2022/01/15 10:38:06;;;;;;;;;;;2.10;99.90;;;;;;5047801;28;19958;-81
2022/01/15 10:40:44;;;;;;;;;;;2.10;99.90;;;;;;5050260;28;20489;-79
2022/01/15 10:43:11;;;;;;;;;;;2.20;99.90;;;;;;5043175;28;19920;-80
2022/01/15 10:45:48;;;;;;;;;;;2.20;99.90;;;;;;5045062;28;19932;-79
2022/01/15 10:48:25;;;;;;;;;;;2.30;99.90;;;;;;5059103;28;19927;-79
2022/01/15 10:50:58;;;;;;;;;;;2.40;99.90;;;;;;5061499;28;20312;-80
2022/01/15 10:53:33;;;;;;;;;;;2.40;99.90;;;;;;5046769;28;19967;-80
2022/01/15 10:55:59;;;;;;;;;;;2.50;99.90;;;;;;5029380;28;19913;-79
2022/01/15 10:58:24;;;;;;;;;;;2.60;99.90;;;;;;5043253;28;19975;-80
2022/01/15 11:00:51;;;;;;;;;;;2.60;99.90;;;;;;5046957;28;20307;-83
2022/01/15 11:03:17;;;;;;;;;;;2.60;99.90;;;;;;5012568;28;19924;-79
2022/01/15 11:05:50;;;;;;;;;;;2.70;99.90;;;;;;5050507;28;19916;-79
2022/01/15 11:08:22;;;;;;;;;;;2.80;99.90;;;;;;5048643;28;19921;-79
2022/01/15 11:10:56;;;;;;;;;;;2.90;99.90;;;;;;5050640;28;20012;-80
2022/01/15 11:13:25;;;;;;;;;;;2.90;99.90;;;;;;5045831;28;19924;-79
2022/01/15 11:15:54;;;;;;;;;;;2.90;99.90;;;;;;5049946;28;19962;-80
2022/01/15 11:18:21;;;;;;;;;;;2.90;99.90;;;;;;5050375;28;20367;-80
2022/01/15 11:20:48;;;;;;;;;;;2.90;99.90;;;;;;5048625;28;19944;-80
2022/01/15 11:23:14;;;;;;;;;;;2.90;99.90;;;;;;5048763;28;19924;-80
2022/01/15 11:25:41;;;;;;;;;;;2.90;99.90;;;;;;5039292;28;19917;-80
2022/01/15 11:28:07;;;;;;;;;;;2.90;99.90;;;;;;5035132;28;19971;-80
2022/01/15 11:30:33;;;;;;;;;;;2.90;99.90;;;;;;5022861;28;19960;-80
2022/01/15 11:32:59;;;;;;;;;;;2.90;99.90;;;;;;5059954;28;19916;-79
2022/01/15 11:35:41;;;;;;;;;;;2.90;99.90;;;;;;5035783;28;19924;-79
2022/01/15 11:38:07;;;;;;;;;;;2.90;99.90;;;;;;5028814;28;19921;-79
2022/01/15 11:40:34;;;;;;;;;;;2.90;99.90;;;;;;5047108;28;19920;-80
2022/01/15 11:43:19;;;;;;;;;;;2.90;99.90;;;;;;5027439;28;19918;-79
2022/01/15 11:45:44;;;;;;;;;;;3.00;99.90;;;;;;5027847;28;19962;-79
2022/01/15 11:48:23;;;;;;;;;;;3.00;99.90;;;;;;5031231;28;19928;-80
2022/01/15 11:51:07;;;;;;;;;;;3.00;99.90;;;;;;5030967;28;19952;-81
2022/01/15 11:53:46;;;;;;;;;;;3.10;99.90;;;;;;5038822;28;19913;-80
2022/01/15 11:56:19;;;;;;;;;;;3.00;99.90;;;;;;5045442;28;20299;-80
2022/01/15 11:58:45;;;;;;;;;;;3.00;99.90;;;;;;5041587;28;20698;-79
2022/01/15 12:01:29;;;;;;;;;;;3.00;99.90;;;;;;5055802;28;20003;-79
2022/01/15 12:04:14;;;;;;;;;;;3.00;99.90;;;;;;5046590;28;20489;-79
2022/01/15 12:06:58;;;;;;;;;;;3.00;99.90;;;;;;5055396;28;20640;-79
2022/01/15 12:09:33;;;;;;;;;;;3.00;99.90;;;;;;5052053;28;19958;-79
2022/01/15 12:11:59;;;;;;;;;;;3.10;99.90;;;;;;5028267;28;19963;-79
2022/01/15 12:14:45;;;;;;;;;;;3.10;99.90;;;;;;5047732;28;19921;-79
2022/01/15 12:17:31;;;;;;;;;;;3.10;99.90;;;;;;5053102;28;19919;-79
2022/01/15 12:20:01;;;;;;;;;;;3.00;99.90;;;;;;5051965;28;19963;-79
2022/01/15 12:22:32;;;;;;;;;;;3.00;99.90;;;;;;5033117;28;19925;-79
2022/01/15 12:24:58;;;;;;;;;;;2.90;99.90;;;;;;5051222;28;19924;-79
2022/01/15 12:27:29;;;;;;;;;;;2.90;99.90;;;;;;5046865;28;21768;-79
2022/01/15 12:30:11;;;;;;;;;;;2.90;99.90;;;;;;5043398;28;19928;-80
2022/01/15 12:32:39;;;;;;;;;;;2.90;99.90;;;;;;5035616;28;19920;-79
2022/01/15 12:35:10;;;;;;;;;;;3.00;99.90;;;;;;5049719;28;19913;-79
2022/01/15 12:37:36;;;;;;;;;;;2.90;99.90;;;;;;5050133;28;20330;-80
2022/01/15 12:40:06;;;;;;;;;;;2.90;99.90;;;;;;5046820;28;19913;-79
2022/01/15 12:42:33;;;;;;;;;;;2.90;99.90;;;;;;5025647;28;19917;-79
2022/01/15 12:44:59;;;;;;;;;;;2.90;99.90;;;;;;5034448;28;20760;-80
2022/01/15 12:47:25;;;;;;;;;;;3.00;99.90;;;;;;5046569;28;19963;-79
2022/01/15 12:49:52;;;;;;;;;;;2.90;99.90;;;;;;5035068;28;19917;-78
2022/01/15 12:52:18;;;;;;;;;;;3.00;99.90;;;;;;5052360;28;20016;-80
2022/01/15 12:54:45;;;;;;;;;;;3.00;99.90;;;;;;5052408;28;19976;-81
2022/01/15 12:57:11;;;;;;;;;;;3.00;99.90;;;;;;5051905;28;20016;-81
2022/01/15 12:59:38;;;;;;;;;;;3.00;99.90;;;;;;5046936;28;19948;-80
2022/01/15 13:02:05;;;;;;;;;;;3.00;99.90;;;;;;5051129;28;20297;-80
2022/01/15 13:04:30;;;;;;;;;;;2.90;99.90;;;;;;5045140;28;19921;-80
2022/01/15 13:07:00;;;;;;;;;;;2.90;99.90;;;;;;5046818;28;20338;-80
2022/01/15 13:09:39;;;;;;;;;;;2.80;99.90;;;;;;5029634;28;19935;-80
2022/01/15 13:12:07;;;;;;;;;;;2.70;99.90;;;;;;5054739;28;19917;-79
2022/01/15 13:14:39;;;;;;;;;;;2.70;99.90;;;;;;5050312;28;20268;-80
2022/01/15 13:17:18;;;;;;;;;;;2.70;99.90;;;;;;5033443;28;20418;-80
2022/01/15 13:19:45;;;;;;;;;;;2.70;99.90;;;;;;5051670;28;19999;-79
2022/01/15 13:22:11;;;;;;;;;;;2.70;99.90;;;;;;5044336;28;19959;-80
2022/01/15 13:24:36;;;;;;;;;;;2.60;99.90;;;;;;5050925;28;19913;-80
2022/01/15 13:27:03;;;;;;;;;;;2.70;99.90;;;;;;5051364;28;19917;-80
2022/01/15 13:29:36;;;;;;;;;;;2.70;99.90;;;;;;5046687;28;19919;-79
2022/01/15 13:32:02;;;;;;;;;;;2.60;99.90;;;;;;5049326;28;19916;-79
2022/01/15 13:34:30;;;;;;;;;;;2.60;99.90;;;;;;5049917;28;20318;-81
2022/01/15 13:37:05;;;;;;;;;;;2.60;99.90;;;;;;5052501;28;20382;-81
2022/01/15 13:39:31;;;;;;;;;;;2.60;99.90;;;;;;5055278;28;20000;-80
2022/01/15 13:41:56;;;;;;;;;;;2.50;99.90;;;;;;5047247;28;19983;-79
2022/01/15 13:44:23;;;;;;;;;;;2.40;99.90;;;;;;5040988;28;19917;-81
2022/01/15 13:46:50;;;;;;;;;;;2.40;99.90;;;;;;5049141;28;19936;-80
2022/01/15 13:49:20;;;;;;;;;;;2.30;99.90;;;;;;5051516;28;19963;-81
2022/01/15 13:54:31;;;;;;;;;;;2.30;99.90;;;;;;5050391;28;19917;-79
2022/01/15 13:57:02;;;;;;;;;;;2.30;99.90;;;;;;5037714;28;20532;-80
2022/01/15 13:59:28;;;;;;;;;;;2.20;99.90;;;;;;5039373;28;19913;-80
2022/01/15 14:01:56;;;;;;;;;;;2.20;99.90;;;;;;5045562;28;19912;-80
2022/01/15 14:04:39;;;;;;;;;;;2.20;99.90;;;;;;5050923;28;19967;-79
2022/01/15 14:07:06;;;;;;;;;;;2.10;99.90;;;;;;5048547;28;19956;-79
2022/01/15 14:09:33;;;;;;;;;;;2.10;99.90;;;;;;5032058;28;19917;-79
2022/01/15 14:12:04;;;;;;;;;;;2.10;99.90;;;;;;5057910;28;19947;-80
2022/01/15 14:14:34;;;;;;;;;;;2.10;99.90;;;;;;5034068;28;19917;-80
2022/01/15 14:17:01;;;;;;;;;;;2.10;99.90;;;;;;5031506;28;19921;-81
2022/01/15 14:19:49;;;;;;;;;;;2.10;99.90;;;;;;5029724;28;20663;-80
2022/01/15 14:22:22;;;;;;;;;;;2.00;99.90;;;;;;5044206;28;19952;-79
2022/01/15 14:24:49;;;;;;;;;;;2.00;99.90;;;;;;5047939;28;19921;-81
2022/01/15 14:27:16;;;;;;;;;;;2.00;99.90;;;;;;5029591;28;19924;-79
2022/01/15 14:29:41;;;;;;;;;;;2.00;99.90;;;;;;5041265;28;19928;-78
2022/01/15 14:32:07;;;;;;;;;;;2.00;99.90;;;;;;5048606;28;19935;-81
2022/01/15 14:34:32;;;;;;;;;;;2.00;99.90;;;;;;5047143;28;20264;-81
2022/01/15 14:36:58;;;;;;;;;;;2.00;99.90;;;;;;5026439;28;19913;-81
2022/01/15 14:39:24;;;;;;;;;;;2.00;99.90;;;;;;5012552;28;19918;-80
2022/01/15 14:41:49;;;;;;;;;;;2.00;99.90;;;;;;5028469;28;19925;-80
2022/01/15 14:44:15;;;;;;;;;;;2.00;99.90;;;;;;5033364;28;19924;-80
2022/01/15 14:46:41;;;;;;;;;;;2.00;99.90;;;;;;5040468;28;19927;-80
2022/01/15 14:49:07;;;;;;;;;;;2.00;99.90;;;;;;5049293;28;19917;-80
2022/01/15 14:51:32;;;;;;;;;;;1.90;99.90;;;;;;5035084;28;19917;-79
2022/01/15 14:53:59;;;;;;;;;;;1.90;99.90;;;;;;5029255;28;19963;-80
2022/01/15 14:56:24;;;;;;;;;;;1.80;99.90;;;;;;5037776;28;19916;-83